sensor_id;sensor_type;location;lat;lon;timestamp;P1;durP1;ratioP1;P2;durP2;ratioP2
74512;SDS011;62992;52.052;8.550;2023-03-01T00:02:39;12.75;;;8.05;;
74512;SDS011;62992;52.052;8.550;2023-03-01T00:05:23;13.38;;;7.53;;
74512;SDS011;62992;52.052;8.550;2023-03-01T00:08:07;16.48;;;8.45;;
74512;SDS011;62992;52.052;8.550;2023-03-01T00:13:55;12.43;;;7.15;;
74512;SDS011;62992;52.052;8.550;2023-03-01T00:16:41;13.80;;;7.80;;
74512;SDS011;62992;52.052;8.550;2023-03-01T00:19:27;14.38;;;7.38;;
74512;SDS011;62992;52.052;8.550;2023-03-01T00:22:11;15.13;;;7.43;;
74512;SDS011;62992;52.052;8.550;2023-03-01T00:24:55;14.35;;;8.05;;
74512;SDS011;62992;52.052;8.550;2023-03-01T00:27:39;13.55;;;7.18;;
74512;SDS011;62992;52.052;8.550;2023-03-01T00:30:23;16.20;;;7.75;;
74512;SDS011;62992;52.052;8.550;2023-03-01T00:33:07;13.13;;;7.07;;
74512;SDS011;62992;52.052;8.550;2023-03-01T00:35:51;10.85;;;7.45;;
74512;SDS011;62992;52.052;8.550;2023-03-01T00:38:42;13.35;;;6.95;;
74512;SDS011;62992;52.052;8.550;2023-03-01T00:41:28;15.02;;;8.10;;
74512;SDS011;62992;52.052;8.550;2023-03-01T00:44:12;12.65;;;7.28;;
74512;SDS011;62992;52.052;8.550;2023-03-01T00:46:56;14.05;;;7.80;;
74512;SDS011;62992;52.052;8.550;2023-03-01T00:49:40;14.13;;;7.30;;
74512;SDS011;62992;52.052;8.550;2023-03-01T00:52:24;14.00;;;7.25;;
74512;SDS011;62992;52.052;8.550;2023-03-01T00:55:08;14.05;;;7.43;;
74512;SDS011;62992;52.052;8.550;2023-03-01T00:57:53;13.80;;;7.70;;
74512;SDS011;62992;52.052;8.550;2023-03-01T01:00:37;13.25;;;6.50;;
74512;SDS011;62992;52.052;8.550;2023-03-01T01:03:21;13.57;;;7.07;;
74512;SDS011;62992;52.052;8.550;2023-03-01T01:06:08;14.75;;;7.38;;
74512;SDS011;62992;52.052;8.550;2023-03-01T01:09:05;15.05;;;7.55;;
74512;SDS011;62992;52.052;8.550;2023-03-01T01:11:51;12.23;;;6.45;;
74512;SDS011;62992;52.052;8.550;2023-03-01T01:14:35;13.10;;;7.10;;
74512;SDS011;62992;52.052;8.550;2023-03-01T01:17:19;14.77;;;8.07;;
74512;SDS011;62992;52.052;8.550;2023-03-01T01:20:04;14.68;;;7.72;;
74512;SDS011;62992;52.052;8.550;2023-03-01T01:22:48;12.63;;;7.35;;
74512;SDS011;62992;52.052;8.550;2023-03-01T01:25:34;15.15;;;7.53;;
74512;SDS011;62992;52.052;8.550;2023-03-01T01:28:19;11.80;;;6.85;;
74512;SDS011;62992;52.052;8.550;2023-03-01T01:31:03;13.10;;;7.13;;
74512;SDS011;62992;52.052;8.550;2023-03-01T01:33:48;14.23;;;7.45;;
74512;SDS011;62992;52.052;8.550;2023-03-01T01:36:32;14.02;;;7.82;;
74512;SDS011;62992;52.052;8.550;2023-03-01T01:39:17;15.87;;;7.60;;
74512;SDS011;62992;52.052;8.550;2023-03-01T01:42:01;13.07;;;7.10;;
74512;SDS011;62992;52.052;8.550;2023-03-01T01:44:46;15.02;;;7.70;;
74512;SDS011;62992;52.052;8.550;2023-03-01T01:47:30;18.23;;;7.72;;
74512;SDS011;62992;52.052;8.550;2023-03-01T01:50:15;13.43;;;7.68;;
74512;SDS011;62992;52.052;8.550;2023-03-01T01:53:01;16.45;;;7.18;;
74512;SDS011;62992;52.052;8.550;2023-03-01T01:55:46;14.15;;;7.68;;
74512;SDS011;62992;52.052;8.550;2023-03-01T01:58:34;21.70;;;7.43;;
74512;SDS011;62992;52.052;8.550;2023-03-01T02:01:20;14.90;;;8.18;;
74512;SDS011;62992;52.052;8.550;2023-03-01T02:04:05;13.48;;;7.60;;
74512;SDS011;62992;52.052;8.550;2023-03-01T02:06:58;11.88;;;7.10;;
74512;SDS011;62992;52.052;8.550;2023-03-01T02:09:51;12.48;;;6.65;;
74512;SDS011;62992;52.052;8.550;2023-03-01T02:12:36;13.52;;;6.78;;
74512;SDS011;62992;52.052;8.550;2023-03-01T02:18:07;14.48;;;6.38;;
74512;SDS011;62992;52.052;8.550;2023-03-01T02:21:17;11.48;;;6.90;;
74512;SDS011;62992;52.052;8.550;2023-03-01T02:24:38;12.23;;;6.78;;
74512;SDS011;62992;52.052;8.550;2023-03-01T02:27:26;12.35;;;6.90;;
74512;SDS011;62992;52.052;8.550;2023-03-01T02:30:24;11.98;;;6.90;;
74512;SDS011;62992;52.052;8.550;2023-03-01T02:33:09;10.95;;;6.97;;
74512;SDS011;62992;52.052;8.550;2023-03-01T02:35:54;14.38;;;7.90;;
74512;SDS011;62992;52.052;8.550;2023-03-01T02:38:40;13.07;;;6.90;;
74512;SDS011;62992;52.052;8.550;2023-03-01T02:44:11;13.38;;;6.93;;
74512;SDS011;62992;52.052;8.550;2023-03-01T02:46:56;13.45;;;7.03;;
74512;SDS011;62992;52.052;8.550;2023-03-01T02:49:41;13.05;;;7.20;;
74512;SDS011;62992;52.052;8.550;2023-03-01T02:52:32;16.55;;;7.78;;
74512;SDS011;62992;52.052;8.550;2023-03-01T02:55:26;12.93;;;7.18;;
74512;SDS011;62992;52.052;8.550;2023-03-01T02:58:11;11.57;;;7.10;;
74512;SDS011;62992;52.052;8.550;2023-03-01T03:00:56;15.63;;;7.68;;
74512;SDS011;62992;52.052;8.550;2023-03-01T03:03:40;13.63;;;7.47;;
74512;SDS011;62992;52.052;8.550;2023-03-01T03:06:25;13.45;;;7.20;;
74512;SDS011;62992;52.052;8.550;2023-03-01T03:09:09;12.38;;;7.40;;
74512;SDS011;62992;52.052;8.550;2023-03-01T03:11:54;13.40;;;6.93;;
74512;SDS011;62992;52.052;8.550;2023-03-01T03:14:38;13.55;;;7.47;;
74512;SDS011;62992;52.052;8.550;2023-03-01T03:17:22;14.45;;;7.30;;
74512;SDS011;62992;52.052;8.550;2023-03-01T03:20:06;12.13;;;7.55;;
74512;SDS011;62992;52.052;8.550;2023-03-01T03:22:56;12.77;;;7.43;;
74512;SDS011;62992;52.052;8.550;2023-03-01T03:25:42;17.40;;;7.60;;
74512;SDS011;62992;52.052;8.550;2023-03-01T03:28:26;11.15;;;7.22;;
74512;SDS011;62992;52.052;8.550;2023-03-01T03:31:10;10.73;;;6.13;;
74512;SDS011;62992;52.052;8.550;2023-03-01T03:33:54;14.20;;;6.68;;
74512;SDS011;62992;52.052;8.550;2023-03-01T03:36:39;14.00;;;7.53;;
74512;SDS011;62992;52.052;8.550;2023-03-01T03:39:23;9.57;;;6.38;;
74512;SDS011;62992;52.052;8.550;2023-03-01T03:42:07;12.35;;;7.15;;
74512;SDS011;62992;52.052;8.550;2023-03-01T03:44:54;13.90;;;7.47;;
74512;SDS011;62992;52.052;8.550;2023-03-01T03:47:38;13.57;;;6.85;;
74512;SDS011;62992;52.052;8.550;2023-03-01T03:50:22;12.45;;;7.60;;
74512;SDS011;62992;52.052;8.550;2023-03-01T03:53:07;11.57;;;6.85;;
74512;SDS011;62992;52.052;8.550;2023-03-01T03:55:54;11.68;;;6.53;;
74512;SDS011;62992;52.052;8.550;2023-03-01T03:58:39;15.10;;;7.78;;
74512;SDS011;62992;52.052;8.550;2023-03-01T04:01:22;11.52;;;6.97;;
74512;SDS011;62992;52.052;8.550;2023-03-01T04:04:07;12.30;;;7.20;;
74512;SDS011;62992;52.052;8.550;2023-03-01T04:06:51;13.07;;;7.55;;
74512;SDS011;62992;52.052;8.550;2023-03-01T04:09:35;14.07;;;7.45;;
74512;SDS011;62992;52.052;8.550;2023-03-01T04:12:19;14.75;;;7.53;;
74512;SDS011;62992;52.052;8.550;2023-03-01T04:15:07;17.50;;;7.72;;
74512;SDS011;62992;52.052;8.550;2023-03-01T04:17:57;13.15;;;7.18;;
74512;SDS011;62992;52.052;8.550;2023-03-01T04:20:42;13.70;;;7.57;;
74512;SDS011;62992;52.052;8.550;2023-03-01T04:23:28;10.48;;;6.75;;
74512;SDS011;62992;52.052;8.550;2023-03-01T04:26:12;14.90;;;7.28;;
74512;SDS011;62992;52.052;8.550;2023-03-01T04:28:56;14.07;;;7.20;;
74512;SDS011;62992;52.052;8.550;2023-03-01T04:31:40;8.70;;;6.25;;
74512;SDS011;62992;52.052;8.550;2023-03-01T04:34:24;10.57;;;6.72;;
74512;SDS011;62992;52.052;8.550;2023-03-01T04:37:10;12.15;;;7.20;;
74512;SDS011;62992;52.052;8.550;2023-03-01T04:39:54;13.38;;;6.85;;
74512;SDS011;62992;52.052;8.550;2023-03-01T04:42:38;13.93;;;7.10;;
74512;SDS011;62992;52.052;8.550;2023-03-01T04:45:23;13.65;;;7.47;;
74512;SDS011;62992;52.052;8.550;2023-03-01T04:48:07;12.25;;;7.47;;
74512;SDS011;62992;52.052;8.550;2023-03-01T04:50:51;12.13;;;6.53;;
74512;SDS011;62992;52.052;8.550;2023-03-01T04:53:35;15.35;;;7.63;;
74512;SDS011;62992;52.052;8.550;2023-03-01T04:56:22;12.07;;;7.00;;
74512;SDS011;62992;52.052;8.550;2023-03-01T04:59:06;11.93;;;6.90;;
74512;SDS011;62992;52.052;8.550;2023-03-01T05:01:53;15.60;;;7.55;;
74512;SDS011;62992;52.052;8.550;2023-03-01T05:04:43;14.00;;;7.80;;
74512;SDS011;62992;52.052;8.550;2023-03-01T05:07:27;12.10;;;7.75;;
74512;SDS011;62992;52.052;8.550;2023-03-01T05:10:11;11.48;;;6.97;;
74512;SDS011;62992;52.052;8.550;2023-03-01T05:12:56;14.02;;;7.03;;
74512;SDS011;62992;52.052;8.550;2023-03-01T05:15:41;10.80;;;6.65;;
74512;SDS011;62992;52.052;8.550;2023-03-01T05:18:26;15.40;;;7.80;;
74512;SDS011;62992;52.052;8.550;2023-03-01T05:21:12;15.23;;;7.35;;
74512;SDS011;62992;52.052;8.550;2023-03-01T05:23:59;11.68;;;7.45;;
74512;SDS011;62992;52.052;8.550;2023-03-01T05:26:43;12.20;;;7.40;;
74512;SDS011;62992;52.052;8.550;2023-03-01T05:29:28;14.30;;;7.60;;
74512;SDS011;62992;52.052;8.550;2023-03-01T05:32:13;15.57;;;8.00;;
74512;SDS011;62992;52.052;8.550;2023-03-01T05:34:59;11.10;;;7.35;;
74512;SDS011;62992;52.052;8.550;2023-03-01T05:37:43;13.07;;;7.78;;
74512;SDS011;62992;52.052;8.550;2023-03-01T05:40:29;14.27;;;7.03;;
74512;SDS011;62992;52.052;8.550;2023-03-01T05:43:14;14.15;;;7.20;;
74512;SDS011;62992;52.052;8.550;2023-03-01T05:45:59;10.77;;;7.28;;
74512;SDS011;62992;52.052;8.550;2023-03-01T05:48:43;10.68;;;6.65;;
74512;SDS011;62992;52.052;8.550;2023-03-01T05:51:27;13.00;;;8.10;;
74512;SDS011;62992;52.052;8.550;2023-03-01T05:54:11;15.75;;;8.15;;
74512;SDS011;62992;52.052;8.550;2023-03-01T05:56:56;10.30;;;6.93;;
74512;SDS011;62992;52.052;8.550;2023-03-01T05:59:40;12.75;;;7.65;;
74512;SDS011;62992;52.052;8.550;2023-03-01T06:02:24;12.05;;;7.25;;
74512;SDS011;62992;52.052;8.550;2023-03-01T06:05:09;11.18;;;6.93;;
74512;SDS011;62992;52.052;8.550;2023-03-01T06:07:55;14.73;;;7.93;;
74512;SDS011;62992;52.052;8.550;2023-03-01T06:10:43;11.98;;;7.88;;
74512;SDS011;62992;52.052;8.550;2023-03-01T06:13:27;14.98;;;7.43;;
74512;SDS011;62992;52.052;8.550;2023-03-01T06:16:11;12.35;;;8.05;;
74512;SDS011;62992;52.052;8.550;2023-03-01T06:18:56;13.50;;;7.70;;
74512;SDS011;62992;52.052;8.550;2023-03-01T06:21:40;17.42;;;7.70;;
74512;SDS011;62992;52.052;8.550;2023-03-01T06:24:24;12.77;;;6.95;;
74512;SDS011;62992;52.052;8.550;2023-03-01T06:27:08;11.18;;;7.05;;
74512;SDS011;62992;52.052;8.550;2023-03-01T06:29:52;14.02;;;7.78;;
74512;SDS011;62992;52.052;8.550;2023-03-01T06:32:36;13.45;;;8.02;;
74512;SDS011;62992;52.052;8.550;2023-03-01T06:35:21;12.35;;;8.02;;
74512;SDS011;62992;52.052;8.550;2023-03-01T06:38:05;11.00;;;6.90;;
74512;SDS011;62992;52.052;8.550;2023-03-01T06:40:53;16.27;;;8.57;;
74512;SDS011;62992;52.052;8.550;2023-03-01T06:43:38;10.90;;;7.18;;
74512;SDS011;62992;52.052;8.550;2023-03-01T06:46:23;14.18;;;8.43;;
74512;SDS011;62992;52.052;8.550;2023-03-01T06:49:07;12.38;;;8.02;;
74512;SDS011;62992;52.052;8.550;2023-03-01T06:51:52;13.02;;;7.85;;
74512;SDS011;62992;52.052;8.550;2023-03-01T06:54:36;13.48;;;7.50;;
74512;SDS011;62992;52.052;8.550;2023-03-01T06:57:20;10.25;;;7.15;;
74512;SDS011;62992;52.052;8.550;2023-03-01T07:00:05;13.80;;;7.80;;
74512;SDS011;62992;52.052;8.550;2023-03-01T07:02:50;11.57;;;7.82;;
74512;SDS011;62992;52.052;8.550;2023-03-01T07:05:35;12.10;;;8.52;;
74512;SDS011;62992;52.052;8.550;2023-03-01T07:08:19;19.83;;;9.45;;
74512;SDS011;62992;52.052;8.550;2023-03-01T07:11:03;18.65;;;10.07;;
74512;SDS011;62992;52.052;8.550;2023-03-01T07:13:49;15.27;;;9.48;;
74512;SDS011;62992;52.052;8.550;2023-03-01T07:16:33;19.15;;;8.82;;
74512;SDS011;62992;52.052;8.550;2023-03-01T07:19:17;12.90;;;8.52;;
74512;SDS011;62992;52.052;8.550;2023-03-01T07:22:01;14.48;;;8.32;;
74512;SDS011;62992;52.052;8.550;2023-03-01T07:24:47;15.40;;;9.13;;
74512;SDS011;62992;52.052;8.550;2023-03-01T07:27:32;13.00;;;8.38;;
74512;SDS011;62992;52.052;8.550;2023-03-01T07:30:16;15.45;;;8.68;;
74512;SDS011;62992;52.052;8.550;2023-03-01T07:33:00;16.15;;;9.00;;
74512;SDS011;62992;52.052;8.550;2023-03-01T07:35:44;16.38;;;8.85;;
74512;SDS011;62992;52.052;8.550;2023-03-01T07:38:29;15.32;;;10.27;;
74512;SDS011;62992;52.052;8.550;2023-03-01T07:41:13;11.90;;;8.95;;
74512;SDS011;62992;52.052;8.550;2023-03-01T07:43:57;10.13;;;7.25;;
74512;SDS011;62992;52.052;8.550;2023-03-01T07:46:41;12.88;;;7.97;;
74512;SDS011;62992;52.052;8.550;2023-03-01T07:49:26;10.77;;;7.82;;
74512;SDS011;62992;52.052;8.550;2023-03-01T07:52:11;11.52;;;9.40;;
74512;SDS011;62992;52.052;8.550;2023-03-01T07:54:56;10.18;;;8.70;;
74512;SDS011;62992;52.052;8.550;2023-03-01T07:57:40;11.57;;;9.07;;
74512;SDS011;62992;52.052;8.550;2023-03-01T08:00:24;14.48;;;10.05;;
74512;SDS011;62992;52.052;8.550;2023-03-01T08:03:08;14.52;;;9.68;;
74512;SDS011;62992;52.052;8.550;2023-03-01T08:05:53;12.52;;;9.13;;
74512;SDS011;62992;52.052;8.550;2023-03-01T08:08:37;11.80;;;8.90;;
74512;SDS011;62992;52.052;8.550;2023-03-01T08:11:21;11.85;;;9.32;;
74512;SDS011;62992;52.052;8.550;2023-03-01T08:14:06;12.45;;;9.48;;
74512;SDS011;62992;52.052;8.550;2023-03-01T08:16:50;10.13;;;8.85;;
74512;SDS011;62992;52.052;8.550;2023-03-01T08:19:34;10.00;;;8.80;;
74512;SDS011;62992;52.052;8.550;2023-03-01T08:22:18;10.27;;;8.23;;
74512;SDS011;62992;52.052;8.550;2023-03-01T08:25:03;9.57;;;8.18;;
74512;SDS011;62992;52.052;8.550;2023-03-01T08:27:47;9.50;;;7.93;;
74512;SDS011;62992;52.052;8.550;2023-03-01T08:30:31;9.48;;;8.13;;
74512;SDS011;62992;52.052;8.550;2023-03-01T08:33:15;11.55;;;8.07;;
74512;SDS011;62992;52.052;8.550;2023-03-01T08:36:05;9.20;;;7.82;;
74512;SDS011;62992;52.052;8.550;2023-03-01T08:38:50;13.25;;;9.05;;
74512;SDS011;62992;52.052;8.550;2023-03-01T08:41:35;9.75;;;8.02;;
74512;SDS011;62992;52.052;8.550;2023-03-01T08:44:19;9.55;;;8.18;;
74512;SDS011;62992;52.052;8.550;2023-03-01T08:47:04;10.35;;;8.60;;
74512;SDS011;62992;52.052;8.550;2023-03-01T08:49:49;11.63;;;8.82;;
74512;SDS011;62992;52.052;8.550;2023-03-01T08:52:34;11.73;;;8.70;;
74512;SDS011;62992;52.052;8.550;2023-03-01T08:55:18;10.40;;;8.82;;
74512;SDS011;62992;52.052;8.550;2023-03-01T08:58:02;11.60;;;8.18;;
74512;SDS011;62992;52.052;8.550;2023-03-01T09:00:46;10.57;;;8.77;;
74512;SDS011;62992;52.052;8.550;2023-03-01T09:03:30;11.23;;;7.88;;
74512;SDS011;62992;52.052;8.550;2023-03-01T09:06:14;12.77;;;8.63;;
74512;SDS011;62992;52.052;8.550;2023-03-01T09:08:59;14.25;;;8.85;;
74512;SDS011;62992;52.052;8.550;2023-03-01T09:11:44;10.55;;;8.15;;
74512;SDS011;62992;52.052;8.550;2023-03-01T09:14:33;11.75;;;8.13;;
74512;SDS011;62992;52.052;8.550;2023-03-01T09:17:17;10.05;;;7.90;;
74512;SDS011;62992;52.052;8.550;2023-03-01T09:20:05;11.25;;;8.80;;
74512;SDS011;62992;52.052;8.550;2023-03-01T09:22:50;10.07;;;7.97;;
74512;SDS011;62992;52.052;8.550;2023-03-01T09:25:34;10.68;;;8.60;;
74512;SDS011;62992;52.052;8.550;2023-03-01T09:28:18;11.07;;;8.75;;
74512;SDS011;62992;52.052;8.550;2023-03-01T09:31:02;11.05;;;8.40;;
74512;SDS011;62992;52.052;8.550;2023-03-01T09:33:47;10.10;;;8.13;;
74512;SDS011;62992;52.052;8.550;2023-03-01T09:36:33;10.73;;;8.45;;
74512;SDS011;62992;52.052;8.550;2023-03-01T09:39:18;12.30;;;8.52;;
74512;SDS011;62992;52.052;8.550;2023-03-01T09:42:02;11.32;;;8.00;;
74512;SDS011;62992;52.052;8.550;2023-03-01T09:44:51;10.95;;;7.88;;
74512;SDS011;62992;52.052;8.550;2023-03-01T09:47:41;11.40;;;8.23;;
74512;SDS011;62992;52.052;8.550;2023-03-01T09:50:26;10.63;;;7.95;;
74512;SDS011;62992;52.052;8.550;2023-03-01T09:53:21;11.32;;;7.53;;
74512;SDS011;62992;52.052;8.550;2023-03-01T09:56:17;11.88;;;7.18;;
74512;SDS011;62992;52.052;8.550;2023-03-01T10:08:43;9.98;;;7.25;;
74512;SDS011;62992;52.052;8.550;2023-03-01T10:11:37;10.48;;;7.07;;
74512;SDS011;62992;52.052;8.550;2023-03-01T10:14:35;11.52;;;7.60;;
74512;SDS011;62992;52.052;8.550;2023-03-01T10:23:22;11.32;;;6.75;;
74512;SDS011;62992;52.052;8.550;2023-03-01T10:29:16;9.70;;;6.13;;
74512;SDS011;62992;52.052;8.550;2023-03-01T10:32:00;10.27;;;6.53;;
74512;SDS011;62992;52.052;8.550;2023-03-01T10:34:47;10.48;;;5.72;;
74512;SDS011;62992;52.052;8.550;2023-03-01T10:37:31;10.65;;;6.22;;
74512;SDS011;62992;52.052;8.550;2023-03-01T10:40:15;9.93;;;5.88;;
74512;SDS011;62992;52.052;8.550;2023-03-01T10:43:04;11.20;;;6.40;;
74512;SDS011;62992;52.052;8.550;2023-03-01T10:45:49;9.88;;;5.75;;
74512;SDS011;62992;52.052;8.550;2023-03-01T10:48:33;11.70;;;6.13;;
74512;SDS011;62992;52.052;8.550;2023-03-01T10:51:17;21.08;;;6.05;;
74512;SDS011;62992;52.052;8.550;2023-03-01T10:54:03;10.70;;;5.65;;
74512;SDS011;62992;52.052;8.550;2023-03-01T10:56:50;9.95;;;5.15;;
74512;SDS011;62992;52.052;8.550;2023-03-01T10:59:39;11.45;;;6.05;;
74512;SDS011;62992;52.052;8.550;2023-03-01T11:02:30;12.60;;;5.55;;
74512;SDS011;62992;52.052;8.550;2023-03-01T11:05:21;8.40;;;5.60;;
74512;SDS011;62992;52.052;8.550;2023-03-01T11:08:07;8.30;;;5.32;;
74512;SDS011;62992;52.052;8.550;2023-03-01T11:11:00;8.88;;;5.38;;
74512;SDS011;62992;52.052;8.550;2023-03-01T11:14:01;8.57;;;5.25;;
74512;SDS011;62992;52.052;8.550;2023-03-01T11:23:16;7.75;;;4.75;;
74512;SDS011;62992;52.052;8.550;2023-03-01T11:26:02;7.82;;;4.85;;
74512;SDS011;62992;52.052;8.550;2023-03-01T11:28:51;7.03;;;4.28;;
74512;SDS011;62992;52.052;8.550;2023-03-01T11:31:41;6.50;;;3.83;;
74512;SDS011;62992;52.052;8.550;2023-03-01T11:34:40;6.07;;;3.78;;
74512;SDS011;62992;52.052;8.550;2023-03-01T11:37:33;7.72;;;4.15;;
74512;SDS011;62992;52.052;8.550;2023-03-01T11:55:12;6.57;;;4.18;;
74512;SDS011;62992;52.052;8.550;2023-03-01T12:06:59;6.72;;;3.97;;
74512;SDS011;62992;52.052;8.550;2023-03-01T12:12:52;8.32;;;3.88;;
74512;SDS011;62992;52.052;8.550;2023-03-01T12:37:50;7.63;;;3.85;;
74512;SDS011;62992;52.052;8.550;2023-03-01T12:47:50;5.68;;;3.60;;
74512;SDS011;62992;52.052;8.550;2023-03-01T12:50:57;6.18;;;3.70;;
74512;SDS011;62992;52.052;8.550;2023-03-01T12:53:47;4.80;;;3.20;;
74512;SDS011;62992;52.052;8.550;2023-03-01T12:56:34;5.55;;;3.53;;
74512;SDS011;62992;52.052;8.550;2023-03-01T13:11:21;6.53;;;3.45;;
74512;SDS011;62992;52.052;8.550;2023-03-01T13:17:24;8.63;;;3.50;;
74512;SDS011;62992;52.052;8.550;2023-03-01T13:20:15;8.30;;;4.30;;
74512;SDS011;62992;52.052;8.550;2023-03-01T13:28:57;7.45;;;3.90;;
74512;SDS011;62992;52.052;8.550;2023-03-01T13:35:31;8.55;;;3.80;;
74512;SDS011;62992;52.052;8.550;2023-03-01T13:37:41;8.02;;;3.90;;
74512;SDS011;62992;52.052;8.550;2023-03-01T13:43:26;7.93;;;3.45;;
74512;SDS011;62992;52.052;8.550;2023-03-01T13:46:21;6.32;;;3.13;;
74512;SDS011;62992;52.052;8.550;2023-03-01T13:49:09;8.98;;;3.88;;
74512;SDS011;62992;52.052;8.550;2023-03-01T13:51:58;7.53;;;3.72;;
74512;SDS011;62992;52.052;8.550;2023-03-01T13:54:42;7.40;;;3.45;;
74512;SDS011;62992;52.052;8.550;2023-03-01T13:57:28;7.90;;;3.63;;
74512;SDS011;62992;52.052;8.550;2023-03-01T14:00:36;6.88;;;3.35;;
74512;SDS011;62992;52.052;8.550;2023-03-01T14:03:23;5.35;;;2.97;;
74512;SDS011;62992;52.052;8.550;2023-03-01T14:06:15;6.20;;;3.03;;
74512;SDS011;62992;52.052;8.550;2023-03-01T14:15:31;5.13;;;2.95;;
74512;SDS011;62992;52.052;8.550;2023-03-01T14:18:33;8.43;;;3.03;;
74512;SDS011;62992;52.052;8.550;2023-03-01T14:21:27;4.97;;;2.83;;
74512;SDS011;62992;52.052;8.550;2023-03-01T14:24:20;6.40;;;3.03;;
74512;SDS011;62992;52.052;8.550;2023-03-01T14:27:09;5.88;;;3.13;;
74512;SDS011;62992;52.052;8.550;2023-03-01T14:29:57;5.22;;;3.08;;
74512;SDS011;62992;52.052;8.550;2023-03-01T14:32:48;5.50;;;2.65;;
74512;SDS011;62992;52.052;8.550;2023-03-01T14:35:37;4.85;;;2.53;;
74512;SDS011;62992;52.052;8.550;2023-03-01T14:38:21;5.90;;;3.08;;
74512;SDS011;62992;52.052;8.550;2023-03-01T14:41:08;4.65;;;2.65;;
74512;SDS011;62992;52.052;8.550;2023-03-01T14:46:43;5.70;;;3.17;;
74512;SDS011;62992;52.052;8.550;2023-03-01T14:49:29;4.97;;;2.75;;
74512;SDS011;62992;52.052;8.550;2023-03-01T14:52:21;4.35;;;2.40;;
74512;SDS011;62992;52.052;8.550;2023-03-01T14:55:16;5.32;;;2.65;;
74512;SDS011;62992;52.052;8.550;2023-03-01T14:58:10;4.47;;;2.78;;
74512;SDS011;62992;52.052;8.550;2023-03-01T15:00:58;4.18;;;2.30;;
74512;SDS011;62992;52.052;8.550;2023-03-01T15:03:48;4.85;;;2.13;;
74512;SDS011;62992;52.052;8.550;2023-03-01T15:06:33;5.75;;;2.63;;
74512;SDS011;62992;52.052;8.550;2023-03-01T15:09:17;5.63;;;2.90;;
74512;SDS011;62992;52.052;8.550;2023-03-01T15:15:19;6.38;;;2.83;;
74512;SDS011;62992;52.052;8.550;2023-03-01T15:18:12;6.00;;;3.17;;
74512;SDS011;62992;52.052;8.550;2023-03-01T15:21:07;6.05;;;3.40;;
74512;SDS011;62992;52.052;8.550;2023-03-01T15:24:05;6.53;;;3.20;;
74512;SDS011;62992;52.052;8.550;2023-03-01T15:27:05;6.63;;;2.22;;
74512;SDS011;62992;52.052;8.550;2023-03-01T15:30:02;5.13;;;2.58;;
74512;SDS011;62992;52.052;8.550;2023-03-01T15:32:47;6.03;;;2.53;;
74512;SDS011;62992;52.052;8.550;2023-03-01T15:35:33;3.88;;;2.47;;
74512;SDS011;62992;52.052;8.550;2023-03-01T15:41:29;3.40;;;2.35;;
74512;SDS011;62992;52.052;8.550;2023-03-01T15:44:29;6.28;;;2.78;;
74512;SDS011;62992;52.052;8.550;2023-03-01T15:47:22;4.63;;;2.63;;
74512;SDS011;62992;52.052;8.550;2023-03-01T15:53:06;5.72;;;2.67;;
74512;SDS011;62992;52.052;8.550;2023-03-01T15:55:54;4.55;;;2.78;;
74512;SDS011;62992;52.052;8.550;2023-03-01T15:58:38;6.97;;;2.45;;
74512;SDS011;62992;52.052;8.550;2023-03-01T16:01:22;7.25;;;2.38;;
74512;SDS011;62992;52.052;8.550;2023-03-01T16:04:08;5.05;;;2.45;;
74512;SDS011;62992;52.052;8.550;2023-03-01T16:06:55;5.32;;;2.55;;
74512;SDS011;62992;52.052;8.550;2023-03-01T16:09:39;6.50;;;2.58;;
74512;SDS011;62992;52.052;8.550;2023-03-01T16:12:23;3.92;;;2.45;;
74512;SDS011;62992;52.052;8.550;2023-03-01T16:15:15;3.80;;;2.28;;
74512;SDS011;62992;52.052;8.550;2023-03-01T16:18:11;4.50;;;2.25;;
74512;SDS011;62992;52.052;8.550;2023-03-01T16:20:55;4.10;;;2.15;;
74512;SDS011;62992;52.052;8.550;2023-03-01T16:23:40;5.13;;;2.38;;
74512;SDS011;62992;52.052;8.550;2023-03-01T16:26:24;4.07;;;2.35;;
74512;SDS011;62992;52.052;8.550;2023-03-01T16:29:08;5.97;;;2.15;;
74512;SDS011;62992;52.052;8.550;2023-03-01T16:31:52;4.18;;;2.13;;
74512;SDS011;62992;52.052;8.550;2023-03-01T16:34:37;3.60;;;2.17;;
74512;SDS011;62992;52.052;8.550;2023-03-01T16:37:21;6.70;;;2.58;;
74512;SDS011;62992;52.052;8.550;2023-03-01T16:40:06;5.47;;;2.67;;
74512;SDS011;62992;52.052;8.550;2023-03-01T16:42:59;4.45;;;2.30;;
74512;SDS011;62992;52.052;8.550;2023-03-01T16:45:44;4.90;;;2.93;;
74512;SDS011;62992;52.052;8.550;2023-03-01T16:48:29;5.67;;;2.73;;
74512;SDS011;62992;52.052;8.550;2023-03-01T16:51:13;4.78;;;2.33;;
74512;SDS011;62992;52.052;8.550;2023-03-01T16:53:58;5.75;;;2.78;;
74512;SDS011;62992;52.052;8.550;2023-03-01T16:56:42;5.15;;;2.75;;
74512;SDS011;62992;52.052;8.550;2023-03-01T16:59:26;5.50;;;2.67;;
74512;SDS011;62992;52.052;8.550;2023-03-01T17:02:11;4.20;;;2.50;;
74512;SDS011;62992;52.052;8.550;2023-03-01T17:04:57;5.32;;;3.00;;
74512;SDS011;62992;52.052;8.550;2023-03-01T17:07:41;4.88;;;2.42;;
74512;SDS011;62992;52.052;8.550;2023-03-01T17:10:26;4.57;;;2.70;;
74512;SDS011;62992;52.052;8.550;2023-03-01T17:13:10;4.20;;;2.25;;
74512;SDS011;62992;52.052;8.550;2023-03-01T17:15:54;3.75;;;2.40;;
74512;SDS011;62992;52.052;8.550;2023-03-01T17:18:39;5.43;;;2.33;;
74512;SDS011;62992;52.052;8.550;2023-03-01T17:21:23;3.95;;;2.25;;
74512;SDS011;62992;52.052;8.550;2023-03-01T17:24:07;6.30;;;2.70;;
74512;SDS011;62992;52.052;8.550;2023-03-01T17:26:51;5.97;;;2.75;;
74512;SDS011;62992;52.052;8.550;2023-03-01T17:29:36;3.45;;;2.30;;
74512;SDS011;62992;52.052;8.550;2023-03-01T17:32:20;5.70;;;2.90;;
74512;SDS011;62992;52.052;8.550;2023-03-01T17:35:05;5.45;;;2.80;;
74512;SDS011;62992;52.052;8.550;2023-03-01T17:37:50;5.85;;;2.80;;
74512;SDS011;62992;52.052;8.550;2023-03-01T17:40:34;5.80;;;2.80;;
74512;SDS011;62992;52.052;8.550;2023-03-01T17:43:21;6.68;;;2.80;;
74512;SDS011;62992;52.052;8.550;2023-03-01T17:46:05;5.45;;;2.63;;
74512;SDS011;62992;52.052;8.550;2023-03-01T17:48:49;6.10;;;2.85;;
74512;SDS011;62992;52.052;8.550;2023-03-01T17:51:33;5.85;;;2.83;;
74512;SDS011;62992;52.052;8.550;2023-03-01T17:54:17;4.32;;;2.88;;
74512;SDS011;62992;52.052;8.550;2023-03-01T17:57:01;7.05;;;3.60;;
74512;SDS011;62992;52.052;8.550;2023-03-01T17:59:45;7.18;;;3.67;;
74512;SDS011;62992;52.052;8.550;2023-03-01T18:02:29;6.35;;;3.55;;
74512;SDS011;62992;52.052;8.550;2023-03-01T18:05:13;5.80;;;3.70;;
74512;SDS011;62992;52.052;8.550;2023-03-01T18:07:57;6.82;;;3.85;;
74512;SDS011;62992;52.052;8.550;2023-03-01T18:10:41;6.97;;;4.55;;
74512;SDS011;62992;52.052;8.550;2023-03-01T18:13:25;7.07;;;3.38;;
74512;SDS011;62992;52.052;8.550;2023-03-01T18:16:10;6.63;;;3.40;;
74512;SDS011;62992;52.052;8.550;2023-03-01T18:18:56;7.10;;;3.25;;
74512;SDS011;62992;52.052;8.550;2023-03-01T18:21:40;6.13;;;3.80;;
74512;SDS011;62992;52.052;8.550;2023-03-01T18:24:26;7.90;;;3.40;;
74512;SDS011;62992;52.052;8.550;2023-03-01T18:27:10;6.65;;;3.75;;
74512;SDS011;62992;52.052;8.550;2023-03-01T18:29:54;9.45;;;3.45;;
74512;SDS011;62992;52.052;8.550;2023-03-01T18:32:39;6.57;;;3.05;;
74512;SDS011;62992;52.052;8.550;2023-03-01T18:35:23;8.82;;;3.63;;
74512;SDS011;62992;52.052;8.550;2023-03-01T18:38:07;7.20;;;3.83;;
74512;SDS011;62992;52.052;8.550;2023-03-01T18:40:52;9.23;;;4.80;;
74512;SDS011;62992;52.052;8.550;2023-03-01T18:43:36;7.68;;;4.15;;
74512;SDS011;62992;52.052;8.550;2023-03-01T18:46:20;6.85;;;4.20;;
74512;SDS011;62992;52.052;8.550;2023-03-01T18:49:04;6.93;;;3.63;;
74512;SDS011;62992;52.052;8.550;2023-03-01T18:51:49;6.63;;;3.90;;